createdAt,value
2023-02-22T11:59:49.820Z,4.30
2023-02-22T12:02:56.361Z,4.00
2023-02-22T12:05:59.733Z,4.20
2023-02-22T12:08:43.601Z,4.90
2023-02-22T12:11:13.036Z,5.40
2023-02-22T12:14:12.854Z,5.80
2023-02-22T12:16:54.636Z,5.00
2023-02-22T12:19:39.478Z,5.70
2023-02-22T12:22:21.477Z,4.50
2023-02-22T12:25:09.737Z,4.30
2023-02-22T12:27:52.514Z,4.60
2023-02-22T12:30:31.519Z,5.00
2023-02-22T12:33:06.384Z,4.30
2023-02-22T12:35:38.299Z,4.60
2023-02-22T12:38:17.240Z,4.30
2023-02-22T12:41:00.247Z,4.70
2023-02-22T12:43:41.298Z,5.50
2023-02-22T12:46:20.462Z,4.50
2023-02-22T12:49:05.324Z,4.60
2023-02-22T12:51:52.106Z,5.60
2023-02-22T12:55:00.641Z,4.20
2023-02-22T12:57:51.280Z,4.60
2023-02-22T13:00:26.640Z,3.80
2023-02-22T13:03:09.359Z,4.00
2023-02-22T13:05:40.303Z,4.40
2023-02-22T13:08:33.705Z,5.30
2023-02-22T13:11:07.770Z,5.10
2023-02-22T13:14:13.469Z,4.30
2023-02-22T13:16:55.301Z,4.50
2023-02-22T13:19:40.356Z,4.80
2023-02-22T13:22:26.807Z,5.40
2023-02-22T13:25:09.294Z,4.70
2023-02-22T13:27:47.541Z,6.00
2023-02-22T13:30:25.856Z,4.80
2023-02-22T13:33:15.026Z,5.00
2023-02-22T13:35:55.875Z,4.90
2023-02-22T13:38:49.489Z,5.10
2023-02-22T13:41:23.047Z,4.90
2023-02-22T13:44:07.415Z,4.90
2023-02-22T13:47:04.593Z,4.80
2023-02-22T13:49:51.306Z,4.30
2023-02-22T13:52:26.794Z,5.60
2023-02-22T13:55:18.244Z,5.80
2023-02-22T13:57:52.154Z,6.50
2023-02-22T14:00:40.909Z,6.20
2023-02-22T14:03:36.010Z,6.70
2023-02-22T14:06:06.474Z,8.10
2023-02-22T14:08:34.898Z,7.50
2023-02-22T14:11:06.399Z,5.90
2023-02-22T14:14:19.401Z,5.70
2023-02-22T14:17:21.879Z,5.00
2023-02-22T14:20:19.633Z,5.30
2023-02-22T14:22:53.147Z,4.90
2023-02-22T14:25:45.197Z,6.40
2023-02-22T14:28:44.031Z,7.70
2023-02-22T14:31:37.694Z,7.10
2023-02-22T14:34:17.522Z,7.40
2023-02-22T14:36:58.399Z,6.00
2023-02-22T14:39:48.425Z,5.00
2023-02-22T14:42:41.969Z,4.70
2023-02-22T14:45:32.048Z,4.50
2023-02-22T14:48:39.628Z,5.60
2023-02-22T14:51:29.394Z,5.10
2023-02-22T14:54:40.080Z,4.60
2023-02-22T14:57:49.800Z,5.00
2023-02-22T15:00:36.514Z,5.00
2023-02-22T15:03:19.305Z,4.60
2023-02-22T15:05:53.126Z,5.50
2023-02-22T15:08:32.241Z,5.90
2023-02-22T15:11:08.322Z,6.00
2023-02-22T15:13:51.486Z,5.40
2023-02-22T15:16:23.069Z,6.40
2023-02-22T15:19:00.588Z,6.20
2023-02-22T15:21:30.772Z,6.20
2023-02-22T15:24:05.423Z,8.10
2023-02-22T15:27:00.835Z,6.80
2023-02-22T15:29:38.678Z,8.30
2023-02-22T15:32:34.006Z,9.00
2023-02-22T15:35:36.199Z,8.90
2023-02-22T15:38:18.897Z,8.80
2023-02-22T15:41:00.788Z,10.10
2023-02-22T15:43:32.785Z,12.80
2023-02-22T15:46:09.502Z,12.40
2023-02-22T15:49:21.606Z,13.20
2023-02-22T15:52:20.143Z,11.40
2023-02-22T15:54:56.238Z,9.50
2023-02-22T15:57:30.626Z,10.20
2023-02-22T16:00:07.587Z,7.60
2023-02-22T16:02:52.021Z,9.40
2023-02-22T16:05:20.705Z,11.40
2023-02-22T16:07:54.851Z,11.40
2023-02-22T16:10:32.682Z,9.30
2023-02-22T16:13:31.691Z,9.70
2023-02-22T16:16:02.892Z,8.30
2023-02-22T16:18:37.148Z,8.50
2023-02-22T16:21:17.038Z,8.20
2023-02-22T16:24:13.818Z,7.70
2023-02-22T16:27:07.993Z,7.50
2023-02-22T16:29:39.391Z,8.70
2023-02-22T16:32:13.652Z,9.50
2023-02-22T16:34:42.421Z,9.90
2023-02-22T16:37:22.407Z,9.80
2023-02-22T16:39:54.012Z,12.30
2023-02-22T16:42:24.471Z,11.60
2023-02-22T16:44:55.483Z,10.70
2023-02-22T16:47:23.875Z,10.60
2023-02-22T16:49:57.230Z,12.40
2023-02-22T16:52:25.960Z,14.70
2023-02-22T16:54:55.045Z,13.30
2023-02-22T16:57:29.029Z,13.00
2023-02-22T17:00:00.095Z,14.40
2023-02-22T17:02:33.974Z,19.20
2023-02-22T17:05:02.650Z,20.10
2023-02-22T17:07:36.112Z,18.10
2023-02-22T17:10:04.739Z,17.40
2023-02-22T17:12:33.235Z,17.70
2023-02-22T17:15:14.423Z,17.60
2023-02-22T17:17:43.202Z,20.40
2023-02-22T17:20:21.167Z,20.30
2023-02-22T17:22:50.018Z,19.60
2023-02-22T17:25:25.537Z,19.90
2023-02-22T17:27:56.934Z,20.40
2023-02-22T17:30:31.367Z,25.50
2023-02-22T17:33:04.717Z,44.60
2023-02-22T17:38:09.925Z,32.20
2023-02-22T17:40:48.190Z,31.70
2023-02-22T17:43:18.068Z,29.00
2023-02-22T17:45:47.025Z,31.00
2023-02-22T17:48:18.019Z,31.80
2023-02-22T17:50:49.913Z,23.00
2023-02-22T17:53:22.772Z,22.80
2023-02-22T17:55:51.820Z,22.20
2023-02-22T17:58:23.804Z,21.90
2023-02-22T18:00:59.259Z,21.80
2023-02-22T18:03:33.159Z,29.30
2023-02-22T18:06:06.097Z,29.80
2023-02-22T18:08:37.583Z,22.60
2023-02-22T18:11:11.948Z,21.80
2023-02-22T18:13:40.647Z,20.70
2023-02-22T18:16:16.274Z,19.90
2023-02-22T18:18:44.894Z,22.00
2023-02-22T18:21:18.414Z,23.20
2023-02-22T18:23:47.486Z,22.90
2023-02-22T18:26:23.896Z,23.30
2023-02-22T18:29:01.221Z,20.20
2023-02-22T18:31:30.097Z,19.00
2023-02-22T18:34:03.539Z,19.00
2023-02-22T18:36:38.392Z,17.60
2023-02-22T18:39:11.848Z,19.90
2023-02-22T18:41:40.639Z,18.60
2023-02-22T18:44:11.182Z,21.50
2023-02-22T18:46:45.354Z,20.00
2023-02-22T18:49:19.662Z,19.30
2023-02-22T18:51:50.520Z,19.80
2023-02-22T18:54:26.228Z,20.50
2023-02-22T18:57:03.686Z,19.80
2023-02-22T18:59:38.429Z,20.30
2023-02-22T19:02:19.676Z,19.60
2023-02-22T19:04:55.233Z,19.60
2023-02-22T19:07:27.239Z,18.40
2023-02-22T19:10:03.775Z,18.90
2023-02-22T19:12:37.636Z,21.80
2023-02-22T19:15:12.027Z,23.20
2023-02-22T19:17:48.408Z,23.10
2023-02-22T19:20:25.726Z,22.00
2023-02-22T19:22:57.558Z,24.20
2023-02-22T19:25:28.765Z,25.70
2023-02-22T19:28:09.749Z,22.50
2023-02-22T19:30:48.909Z,23.60
2023-02-22T19:33:26.249Z,24.70
2023-02-22T19:36:06.201Z,25.00
2023-02-22T19:38:41.870Z,23.30
2023-02-22T19:41:21.948Z,22.70
2023-02-22T19:44:04.942Z,22.80
2023-02-22T19:46:36.689Z,21.90
2023-02-22T19:49:20.010Z,26.80
2023-02-22T19:52:03.929Z,22.90
2023-02-22T19:54:45.129Z,23.90
2023-02-22T19:57:29.582Z,23.00
2023-02-22T20:00:24.651Z,22.80
2023-02-22T20:03:13.534Z,25.80
2023-02-22T20:05:45.633Z,25.70
2023-02-22T20:08:28.660Z,25.30
2023-02-22T20:10:59.640Z,24.40
2023-02-22T20:13:34.134Z,25.20
2023-02-22T20:16:02.976Z,22.80
2023-02-22T20:18:31.712Z,20.50
2023-02-22T20:21:09.985Z,19.70
2023-02-22T20:23:44.496Z,22.00
2023-02-22T20:26:24.295Z,21.80
2023-02-22T20:28:53.610Z,20.20
2023-02-22T20:31:22.624Z,21.80
2023-02-22T20:33:55.564Z,21.20
2023-02-22T20:36:24.561Z,23.40
2023-02-22T20:38:57.488Z,24.70
2023-02-22T20:41:32.300Z,25.70
2023-02-22T20:44:02.186Z,25.40
2023-02-22T20:46:31.785Z,27.40
2023-02-22T20:49:02.173Z,29.50
2023-02-22T20:51:30.998Z,26.60
2023-02-22T20:54:02.473Z,24.90
2023-02-22T20:56:32.252Z,20.70
2023-02-22T20:59:02.662Z,19.60
2023-02-22T21:01:34.541Z,17.30
2023-02-22T21:04:04.929Z,17.40
2023-02-22T21:06:37.206Z,18.70
2023-02-22T21:09:12.497Z,18.60
2023-02-22T21:11:42.304Z,19.60
2023-02-22T21:14:16.743Z,19.70
2023-02-22T21:16:49.471Z,19.60
2023-02-22T21:19:30.754Z,22.90
2023-02-22T21:22:06.986Z,22.90
2023-02-22T21:24:40.953Z,21.80
2023-02-22T21:27:12.248Z,22.30
2023-02-22T21:29:41.160Z,29.70
2023-02-22T21:32:14.030Z,35.40
2023-02-22T21:34:45.022Z,29.50
2023-02-22T21:37:18.188Z,27.40
2023-02-22T21:39:47.786Z,22.80
2023-02-22T21:42:16.221Z,18.30
2023-02-22T21:44:56.399Z,18.10
2023-02-22T21:47:25.175Z,18.70
2023-02-22T21:49:56.862Z,17.30
2023-02-22T21:52:33.346Z,17.80
2023-02-22T21:55:06.368Z,15.90
2023-02-22T21:57:35.094Z,14.90
2023-02-22T22:00:29.008Z,14.10
2023-02-22T22:03:08.640Z,13.50
2023-02-22T22:05:47.735Z,14.70
2023-02-22T22:08:22.177Z,15.40
2023-02-22T22:10:58.927Z,16.00
2023-02-22T22:13:30.696Z,14.90
2023-02-22T22:16:10.237Z,15.50
2023-02-22T22:18:50.509Z,18.60
2023-02-22T22:21:24.189Z,18.90
2023-02-22T22:23:58.826Z,20.80
2023-02-22T22:26:27.514Z,19.10
2023-02-22T22:29:04.388Z,20.00
2023-02-22T22:31:33.198Z,19.30
2023-02-22T22:34:02.206Z,20.50
2023-02-22T22:36:30.872Z,20.60
2023-02-22T22:39:13.100Z,20.00
2023-02-22T22:41:44.919Z,19.70
2023-02-22T22:44:17.515Z,17.60
2023-02-22T22:46:49.331Z,16.60
2023-02-22T22:49:20.701Z,17.90
2023-02-22T22:51:54.807Z,17.50
2023-02-22T22:54:26.593Z,16.20
2023-02-22T22:56:58.096Z,16.70
2023-02-22T22:59:30.719Z,14.80
2023-02-22T23:02:04.759Z,14.30
2023-02-22T23:04:40.391Z,13.90
2023-02-22T23:07:17.193Z,14.20
2023-02-22T23:09:56.888Z,13.40
2023-02-22T23:12:33.638Z,13.60
2023-02-22T23:15:03.793Z,14.20
2023-02-22T23:17:45.781Z,13.70
2023-02-22T23:20:23.732Z,12.70
2023-02-22T23:22:58.739Z,12.60
2023-02-22T23:25:38.315Z,12.20
2023-02-22T23:28:15.548Z,13.20
2023-02-22T23:30:57.111Z,12.60
2023-02-22T23:33:34.467Z,13.10
2023-02-22T23:36:11.205Z,11.40
2023-02-22T23:39:03.590Z,10.70
2023-02-22T23:41:41.290Z,10.60
2023-02-22T23:44:28.041Z,11.00
2023-02-22T23:47:16.160Z,11.40
2023-02-22T23:50:06.657Z,10.50
2023-02-22T23:52:53.697Z,10.40
2023-02-22T23:58:27.685Z,11.50
